CheckWX is a tool to help pilots better visualize weather data.  It is not intended as a substitute for an official pre-flight weather briefing.

23:36:39 UTC

KCEC METAR
Jack Mc Namara Field Airport
Crescent City, California, USA
Current

23 mins ago

KCEC 182314Z AUTO 18009KT 8SM SCT023 14/12 A3009 RMK AO2 T01390117
Observed
Oct-18 @ 23:14 UTC
Wind
  • 180° at 9 KTS
Visibility
8 SM
Flight Rules
VFR
Cloud Levels
  • Scattered at 2,300' AGL
Temperature
14°C / 57°F
Dewpoint
12°C / 54°F
Humidity
88%
Altimeter
30.09" Hg
Pressure
1018.92 hPa
Previous

41 mins ago

KCEC 182256Z AUTO 18010KT 8SM OVC022 14/12 A3010 RMK AO2 SLP192 T01390117
Observed
Oct-18 @ 22:56 UTC
Wind
  • 180° at 10 KTS
Visibility
8 SM
Flight Rules
MVFR
Cloud Levels
  • Overcast at 2,200' AGL
Temperature
14°C / 57°F
Dewpoint
12°C / 54°F
Humidity
88%
Altimeter
30.1" Hg
Pressure
1019.32 hPa
Previous

2 hours ago

KCEC 182206Z AUTO 18009KT 7SM FEW005 BKN023 14/12 A3010 RMK AO2 T01440122
Observed
Oct-18 @ 22:06 UTC
Wind
  • 180° at 9 KTS
Visibility
7 SM
Flight Rules
MVFR
Cloud Levels
  • Few at 500' AGL
  • Broken at 2,300' AGL
Temperature
14°C / 57°F
Dewpoint
12°C / 54°F
Humidity
88%
Altimeter
30.1" Hg
Pressure
1019.32 hPa